createdAt,value
2018-07-07T00:00:24.399Z,78.44
2018-07-07T00:01:24.338Z,79.59
2018-07-07T00:03:17.107Z,79.49
2018-07-07T00:04:17.037Z,79.59
2018-07-07T00:06:09.847Z,77.95
2018-07-07T00:07:09.741Z,79.97
2018-07-07T00:09:02.507Z,77.86
2018-07-07T00:10:02.454Z,79.68
2018-07-07T00:11:55.264Z,77.76
2018-07-07T00:12:55.175Z,78.15
2018-07-07T00:14:47.971Z,78.44
2018-07-07T00:15:47.901Z,78.59
2018-07-07T00:17:40.696Z,80.93
2018-07-07T00:18:40.625Z,78.40
2018-07-07T00:20:33.389Z,79.26
2018-07-07T00:21:33.328Z,79.36
2018-07-07T00:23:26.125Z,81.70
2018-07-07T00:24:26.048Z,81.89
2018-07-07T00:26:18.825Z,79.88
2018-07-07T00:27:18.801Z,81.31
2018-07-07T00:29:11.543Z,80.89
2018-07-07T00:30:11.474Z,80.89
2018-07-07T00:32:04.265Z,81.27
2018-07-07T00:33:04.202Z,81.75
2018-07-07T00:34:56.996Z,82.32
2018-07-07T00:35:56.924Z,82.42
2018-07-07T00:37:49.745Z,82.14
2018-07-07T00:38:49.648Z,79.16
2018-07-07T00:40:42.448Z,83.00
2018-07-07T00:41:42.369Z,82.52
2018-07-07T00:43:35.412Z,83.76
2018-07-07T00:44:35.234Z,83.38
2018-07-07T00:46:28.093Z,82.32
2018-07-07T00:47:28.005Z,82.14
2018-07-07T00:49:20.986Z,82.38
2018-07-07T00:50:20.797Z,82.96
2018-07-07T00:52:13.670Z,81.81
2018-07-07T00:53:13.530Z,82.48
2018-07-07T00:55:06.321Z,82.04
2018-07-07T00:56:06.247Z,83.82
2018-07-07T00:57:59.009Z,82.00
2018-07-07T00:58:58.955Z,84.30
2018-07-07T01:00:51.733Z,82.38
2018-07-07T01:01:51.654Z,82.86
2018-07-07T01:03:44.454Z,83.82
2018-07-07T01:04:44.364Z,84.88
2018-07-07T01:06:37.129Z,84.58
2018-07-07T01:07:37.069Z,83.82
2018-07-07T01:09:29.912Z,83.82
2018-07-07T01:10:29.779Z,85.35
2018-07-07T01:12:22.597Z,85.45
2018-07-07T01:13:22.499Z,86.02
2018-07-07T01:15:15.281Z,82.09
2018-07-07T01:16:15.204Z,83.78
2018-07-07T01:18:07.985Z,83.92
2018-07-07T01:19:07.917Z,84.78
2018-07-07T01:21:00.753Z,84.45
2018-07-07T01:22:00.651Z,85.79
2018-07-07T01:23:53.409Z,85.50
2018-07-07T01:24:53.339Z,84.92
2018-07-07T01:26:46.155Z,86.84
2018-07-07T01:27:46.081Z,86.27
2018-07-07T01:29:38.871Z,85.12
2018-07-07T01:30:38.779Z,85.88
2018-07-07T01:32:31.550Z,86.08
2018-07-07T01:33:31.494Z,86.84
2018-07-07T01:35:24.289Z,86.65
2018-07-07T01:36:24.214Z,87.90
2018-07-07T01:38:16.988Z,86.55
2018-07-07T01:39:16.927Z,85.88
2018-07-07T01:41:09.709Z,86.17
2018-07-07T01:42:09.633Z,86.94
2018-07-07T01:44:02.397Z,85.69
2018-07-07T01:45:02.338Z,87.41
2018-07-07T01:46:55.151Z,86.94
2018-07-07T01:47:55.048Z,87.03
2018-07-07T01:49:47.811Z,86.84
2018-07-07T01:50:47.759Z,87.13
2018-07-07T01:52:40.527Z,86.94
2018-07-07T01:53:40.458Z,86.65
2018-07-07T01:55:33.292Z,87.61
2018-07-07T01:56:33.206Z,87.41
2018-07-07T01:58:26.018Z,86.84
2018-07-07T01:59:25.937Z,87.32
2018-07-07T02:01:18.731Z,86.74
2018-07-07T02:02:18.675Z,86.36
2018-07-07T02:04:11.483Z,85.98
2018-07-07T02:05:11.475Z,85.88
2018-07-07T02:07:04.178Z,87.03
2018-07-07T02:08:04.106Z,85.41
2018-07-07T02:09:56.897Z,87.70
2018-07-07T02:10:56.830Z,87.70
2018-07-07T02:12:49.600Z,86.17
2018-07-07T02:13:49.533Z,88.09
2018-07-07T02:15:42.314Z,87.27
2018-07-07T02:16:42.246Z,87.27
2018-07-07T02:18:35.045Z,88.23
2018-07-07T02:19:34.959Z,87.52
2018-07-07T02:21:27.733Z,89.34
2018-07-07T02:22:27.665Z,89.15
2018-07-07T02:24:20.454Z,90.10
2018-07-07T02:25:20.372Z,88.57
2018-07-07T02:27:13.162Z,89.43
2018-07-07T02:28:13.097Z,89.91
2018-07-07T02:30:05.870Z,89.15
2018-07-07T02:31:05.796Z,89.48
2018-07-07T02:32:58.576Z,88.29
2018-07-07T02:33:58.515Z,89.67
2018-07-07T02:35:51.298Z,89.48
2018-07-07T02:36:51.214Z,88.62
2018-07-07T02:38:44.003Z,89.29
2018-07-07T02:39:43.920Z,88.33
2018-07-07T02:41:36.679Z,87.95
2018-07-07T02:42:36.614Z,88.13
2018-07-07T02:44:29.413Z,89.76
2018-07-07T02:45:29.341Z,89.09
2018-07-07T02:47:22.119Z,88.33
2018-07-07T02:48:22.087Z,88.43
2018-07-07T02:50:14.840Z,88.81
2018-07-07T02:51:14.764Z,88.71
2018-07-07T02:53:07.539Z,89.38
2018-07-07T02:54:07.467Z,88.52
2018-07-07T02:56:00.270Z,89.38
2018-07-07T02:57:00.192Z,88.52
2018-07-07T02:58:52.959Z,87.95
2018-07-07T02:59:52.895Z,89.23
2018-07-07T03:01:45.667Z,88.28
2018-07-07T03:02:45.618Z,87.95
2018-07-07T03:04:38.366Z,88.56
2018-07-07T03:05:38.292Z,88.81
2018-07-07T03:07:31.079Z,89.09
2018-07-07T03:08:31.003Z,89.58
2018-07-07T03:10:23.823Z,88.62
2018-07-07T03:11:23.704Z,87.85
2018-07-07T03:13:16.475Z,89.38
2018-07-07T03:14:16.416Z,89.58
2018-07-07T03:16:09.207Z,89.19
2018-07-07T03:17:09.141Z,88.71
2018-07-07T03:19:01.912Z,88.33
2018-07-07T03:20:01.839Z,89.38
2018-07-07T03:21:54.627Z,88.23
2018-07-07T03:22:54.531Z,88.23
2018-07-07T03:24:47.301Z,89.00
2018-07-07T03:25:47.231Z,89.52
2018-07-07T03:27:40.021Z,88.23
2018-07-07T03:28:39.952Z,89.52
2018-07-07T03:30:32.754Z,88.28
2018-07-07T03:31:32.648Z,89.14
2018-07-07T03:33:25.417Z,88.18
2018-07-07T03:34:25.355Z,88.56
2018-07-07T03:36:18.180Z,88.62
2018-07-07T03:37:18.096Z,89.67
2018-07-07T03:39:10.880Z,89.33
2018-07-07T03:40:10.798Z,88.18
2018-07-07T03:42:03.590Z,88.66
2018-07-07T03:43:03.512Z,87.90
2018-07-07T03:44:56.313Z,89.09
2018-07-07T03:45:56.246Z,88.62
2018-07-07T03:47:49.035Z,89.48
2018-07-07T03:48:48.962Z,88.71
2018-07-07T03:50:41.731Z,89.48
2018-07-07T03:51:41.671Z,89.19
2018-07-07T03:53:34.464Z,89.48
2018-07-07T03:54:34.388Z,88.43
2018-07-07T03:56:27.168Z,89.34
2018-07-07T03:57:27.107Z,90.05
2018-07-07T03:59:19.866Z,89.67
2018-07-07T04:00:19.803Z,89.67
2018-07-07T04:02:12.588Z,88.62
2018-07-07T04:03:12.510Z,88.62
2018-07-07T04:05:05.283Z,89.14
2018-07-07T04:06:05.221Z,88.28
2018-07-07T04:07:58.007Z,88.85
2018-07-07T04:08:57.930Z,88.37
2018-07-07T04:10:50.693Z,88.85
2018-07-07T04:11:50.635Z,88.37
2018-07-07T04:13:43.449Z,87.61
2018-07-07T04:14:43.387Z,87.80
2018-07-07T04:16:36.199Z,87.41
2018-07-07T04:17:36.107Z,88.18
2018-07-07T04:19:28.984Z,87.99
2018-07-07T04:20:28.972Z,87.70
2018-07-07T04:22:21.752Z,88.95
2018-07-07T04:23:21.633Z,88.56
2018-07-07T04:25:14.391Z,88.47
2018-07-07T04:26:14.322Z,87.70
2018-07-07T04:28:07.150Z,88.28
2018-07-07T04:29:07.090Z,88.28
2018-07-07T04:30:59.908Z,87.84
2018-07-07T04:31:59.785Z,87.84
2018-07-07T04:33:52.569Z,87.27
2018-07-07T04:34:52.518Z,87.74
2018-07-07T04:36:45.266Z,87.84
2018-07-07T04:37:45.214Z,87.46
2018-07-07T04:39:37.983Z,87.17
2018-07-07T04:40:37.922Z,87.21
2018-07-07T04:42:30.698Z,87.50
2018-07-07T04:43:30.625Z,86.54
2018-07-07T04:45:23.392Z,86.74
2018-07-07T04:46:23.344Z,86.78
2018-07-07T04:48:16.111Z,86.07
2018-07-07T04:49:16.042Z,85.92
2018-07-07T04:51:08.849Z,85.82
2018-07-07T04:52:08.752Z,85.44
2018-07-07T04:54:01.524Z,85.53
2018-07-07T04:55:01.462Z,85.38
2018-07-07T04:56:54.247Z,85.10
2018-07-07T04:57:54.168Z,85.28
2018-07-07T04:59:46.955Z,84.04
2018-07-07T05:00:46.893Z,84.61
2018-07-07T05:02:39.756Z,84.08
2018-07-07T05:03:39.673Z,83.60
2018-07-07T05:05:32.502Z,83.93
2018-07-07T05:06:32.428Z,81.96
2018-07-07T05:08:25.215Z,81.32
2018-07-07T05:09:25.143Z,81.37
2018-07-07T05:11:17.941Z,80.55
2018-07-07T05:12:17.883Z,79.60
2018-07-07T05:14:10.647Z,80.21
2018-07-07T05:15:10.580Z,76.92
2018-07-07T05:17:03.362Z,71.85
2018-07-07T05:18:03.287Z,73.14
2018-07-07T05:19:56.074Z,72.08
2018-07-07T05:20:56.009Z,73.78
2018-07-07T05:22:48.826Z,77.13
2018-07-07T05:23:48.740Z,77.81
2018-07-07T05:25:41.540Z,80.71
2018-07-07T05:26:41.470Z,81.09
2018-07-07T05:28:34.245Z,81.96
2018-07-07T05:29:34.171Z,82.59
2018-07-07T05:31:27.010Z,81.52
2018-07-07T05:32:26.918Z,80.50
2018-07-07T05:34:19.679Z,77.78
2018-07-07T05:35:19.619Z,74.88
2018-07-07T05:37:12.447Z,69.58
2018-07-07T05:38:12.332Z,68.78
2018-07-07T05:40:05.107Z,66.72
2018-07-07T05:41:05.056Z,64.11
2018-07-07T05:42:57.845Z,63.82
2018-07-07T05:43:57.749Z,62.21
2018-07-07T05:45:50.524Z,62.72
2018-07-07T05:46:50.477Z,60.43
2018-07-07T05:48:43.280Z,61.08
2018-07-07T05:49:43.191Z,62.34
2018-07-07T05:51:36.017Z,61.27
2018-07-07T05:52:35.942Z,59.46
2018-07-07T05:54:28.758Z,59.56
2018-07-07T05:55:28.675Z,59.36
2018-07-07T05:57:21.494Z,59.66
2018-07-07T05:58:21.402Z,59.59
2018-07-07T06:00:14.213Z,58.42
2018-07-07T06:01:14.141Z,58.36
2018-07-07T06:03:06.915Z,60.91
2018-07-07T06:04:06.868Z,58.91
2018-07-07T06:05:59.654Z,60.55
2018-07-07T06:06:59.576Z,58.36
2018-07-07T06:08:52.391Z,57.83
2018-07-07T06:09:52.306Z,57.08
2018-07-07T06:11:45.079Z,55.31
2018-07-07T06:12:45.009Z,55.87
2018-07-07T06:14:37.830Z,56.05
2018-07-07T06:15:37.761Z,58.65
2018-07-07T06:17:30.542Z,55.79
2018-07-07T06:18:30.477Z,56.86
2018-07-07T06:20:23.276Z,55.35
2018-07-07T06:21:23.258Z,57.03
2018-07-07T06:23:15.988Z,56.74
2018-07-07T06:24:15.926Z,56.45
2018-07-07T06:26:08.808Z,56.96
2018-07-07T06:27:08.653Z,55.43
2018-07-07T06:29:01.470Z,53.22
2018-07-07T06:30:01.380Z,53.91
2018-07-07T06:31:54.324Z,56.34
2018-07-07T06:32:54.138Z,53.83
2018-07-07T06:34:46.936Z,55.39
2018-07-07T06:35:46.844Z,52.37
2018-07-07T06:37:39.669Z,52.40
2018-07-07T06:38:39.572Z,51.26
2018-07-07T06:40:32.419Z,53.20
2018-07-07T06:41:32.302Z,53.42
2018-07-07T06:43:25.072Z,53.35
2018-07-07T06:44:25.019Z,52.57
2018-07-07T06:46:17.882Z,52.43
2018-07-07T06:47:17.795Z,51.75
2018-07-07T06:49:10.650Z,51.33
2018-07-07T06:50:10.592Z,52.23
2018-07-07T06:52:03.396Z,51.26
2018-07-07T06:53:03.439Z,50.46
2018-07-07T06:54:56.260Z,51.72
2018-07-07T06:55:56.208Z,50.97
2018-07-07T06:57:49.192Z,51.55
2018-07-07T06:58:49.150Z,50.60
2018-07-07T07:00:41.945Z,51.21
2018-07-07T07:01:41.868Z,51.62
2018-07-07T07:03:34.712Z,52.72
2018-07-07T07:04:34.596Z,51.17
2018-07-07T07:06:27.437Z,49.37
2018-07-07T07:07:27.333Z,50.14
2018-07-07T07:09:20.148Z,48.41
2018-07-07T07:10:20.093Z,48.61
2018-07-07T07:12:12.878Z,48.47
2018-07-07T07:13:12.797Z,52.78
2018-07-07T07:15:05.596Z,55.87
2018-07-07T07:16:05.528Z,53.69
2018-07-07T07:17:58.338Z,52.55
2018-07-07T07:18:58.305Z,54.36
2018-07-07T07:20:51.049Z,54.11
2018-07-07T07:21:50.996Z,54.92
2018-07-07T07:23:43.813Z,52.45
2018-07-07T07:24:43.741Z,52.69
2018-07-07T07:26:36.647Z,50.60
2018-07-07T07:27:36.541Z,49.15
2018-07-07T07:29:29.370Z,49.10
2018-07-07T07:30:29.295Z,48.75
2018-07-07T07:32:22.095Z,51.40
2018-07-07T07:33:22.033Z,50.56
2018-07-07T07:35:14.832Z,50.70
2018-07-07T07:36:14.761Z,50.43
2018-07-07T07:38:07.592Z,47.25
2018-07-07T07:39:07.518Z,47.85
2018-07-07T07:41:00.307Z,47.97
2018-07-07T07:42:00.247Z,46.00
2018-07-07T07:43:53.047Z,45.67
2018-07-07T07:44:52.977Z,47.13
2018-07-07T07:46:45.760Z,49.22
2018-07-07T07:47:45.698Z,48.34
2018-07-07T07:49:38.732Z,49.92
2018-07-07T07:50:38.443Z,48.56
2018-07-07T07:52:31.227Z,47.98
2018-07-07T07:53:31.167Z,48.88
2018-07-07T07:55:23.971Z,47.17
2018-07-07T07:56:23.904Z,47.15
2018-07-07T07:58:16.746Z,46.83
2018-07-07T07:59:16.660Z,48.05
2018-07-07T08:01:09.454Z,47.51
2018-07-07T08:02:09.394Z,45.07
2018-07-07T08:04:02.199Z,44.17
2018-07-07T08:05:02.170Z,45.05
2018-07-07T08:06:54.915Z,44.78
2018-07-07T08:07:54.866Z,43.99
2018-07-07T08:09:47.654Z,44.34
2018-07-07T08:10:47.594Z,43.67
2018-07-07T08:12:40.402Z,42.81
2018-07-07T08:13:40.313Z,42.22
2018-07-07T08:15:33.118Z,42.13
2018-07-07T08:16:33.045Z,42.36
2018-07-07T08:18:25.841Z,41.33
2018-07-07T08:19:25.779Z,40.17
2018-07-07T08:21:18.571Z,39.70
2018-07-07T08:22:18.536Z,39.66
2018-07-07T08:24:11.316Z,40.43
2018-07-07T08:25:11.238Z,41.87
2018-07-07T08:27:04.032Z,44.52
2018-07-07T08:28:03.978Z,45.76
2018-07-07T08:29:56.795Z,48.27
2018-07-07T08:30:56.728Z,48.05
2018-07-07T08:32:49.515Z,49.29
2018-07-07T08:33:49.454Z,49.80
2018-07-07T08:35:42.241Z,49.22
2018-07-07T08:36:42.168Z,47.93
2018-07-07T08:38:34.967Z,47.40
2018-07-07T08:39:34.910Z,47.91
2018-07-07T08:41:27.711Z,46.61
2018-07-07T08:42:27.617Z,47.03
2018-07-07T08:44:20.408Z,45.88
2018-07-07T08:45:20.340Z,44.73
2018-07-07T08:47:13.165Z,43.80
2018-07-07T08:48:13.109Z,42.14
2018-07-07T08:50:05.904Z,43.53
2018-07-07T08:51:05.829Z,41.95
2018-07-07T08:52:58.634Z,44.20
2018-07-07T08:53:58.561Z,47.76
2018-07-07T08:55:51.345Z,49.95
2018-07-07T08:56:51.286Z,50.63
2018-07-07T08:58:44.146Z,49.05
2018-07-07T08:59:44.070Z,49.02
2018-07-07T09:01:36.881Z,50.24
2018-07-07T09:02:36.824Z,51.76
2018-07-07T09:04:29.689Z,52.71
2018-07-07T09:05:29.587Z,52.90
2018-07-07T09:07:22.358Z,53.29
2018-07-07T09:08:22.356Z,53.97
2018-07-07T09:10:15.194Z,52.80
2018-07-07T09:11:15.016Z,54.19
2018-07-07T09:13:07.841Z,52.80
2018-07-07T09:14:07.743Z,53.77
2018-07-07T09:16:00.579Z,56.65
2018-07-07T09:17:00.483Z,55.00
2018-07-07T09:18:53.290Z,54.94
2018-07-07T09:19:53.192Z,55.04
2018-07-07T09:21:46.021Z,52.25
2018-07-07T09:22:45.949Z,51.96
2018-07-07T09:24:39.287Z,50.82
2018-07-07T09:25:38.665Z,51.43
2018-07-07T09:27:31.471Z,48.93
2018-07-07T09:28:31.405Z,48.64
2018-07-07T09:30:24.234Z,49.27
2018-07-07T09:31:24.166Z,49.82
2018-07-07T09:33:16.957Z,50.24
2018-07-07T09:34:16.907Z,49.92
2018-07-07T09:36:09.701Z,48.49
2018-07-07T09:37:09.625Z,49.10
2018-07-07T09:39:02.440Z,49.90
2018-07-07T09:40:02.339Z,49.51
2018-07-07T09:41:55.119Z,50.77
2018-07-07T09:42:55.058Z,51.14
2018-07-07T09:44:48.328Z,49.75
2018-07-07T09:45:48.252Z,50.36
2018-07-07T09:47:41.036Z,50.43
2018-07-07T09:48:40.977Z,50.53
2018-07-07T09:50:33.803Z,51.31
2018-07-07T09:51:33.782Z,51.37
2018-07-07T09:53:26.502Z,51.37
2018-07-07T09:54:26.426Z,52.44
2018-07-07T09:56:19.320Z,51.37
2018-07-07T09:57:19.200Z,51.47
2018-07-07T09:59:11.996Z,50.16
2018-07-07T10:00:11.943Z,48.05
2018-07-07T10:02:04.763Z,48.18
2018-07-07T10:03:04.691Z,48.66
2018-07-07T10:04:57.489Z,46.33
2018-07-07T10:05:57.412Z,46.50
2018-07-07T10:07:50.217Z,48.05
2018-07-07T10:08:50.139Z,47.11
2018-07-07T10:10:43.003Z,45.28
2018-07-07T10:11:42.914Z,45.21
2018-07-07T10:13:35.741Z,44.06
2018-07-07T10:14:35.636Z,44.76
2018-07-07T10:16:28.435Z,41.57
2018-07-07T10:17:28.360Z,42.45
2018-07-07T10:19:21.168Z,41.55
2018-07-07T10:20:21.134Z,43.62
2018-07-07T10:22:13.901Z,41.86
2018-07-07T10:23:13.835Z,42.28
2018-07-07T10:25:06.631Z,42.38
2018-07-07T10:26:06.569Z,41.50
2018-07-07T10:27:59.366Z,41.96
2018-07-07T10:28:59.291Z,41.79
2018-07-07T10:30:52.087Z,41.61
2018-07-07T10:31:52.023Z,43.08
2018-07-07T10:33:44.842Z,40.64
2018-07-07T10:34:44.750Z,39.94
2018-07-07T10:36:37.544Z,41.13
2018-07-07T10:37:37.493Z,38.98
2018-07-07T10:39:30.290Z,37.58
2018-07-07T10:40:30.220Z,39.34
2018-07-07T10:42:23.085Z,39.72
2018-07-07T10:43:23.015Z,39.94
2018-07-07T10:45:15.791Z,39.43
2018-07-07T10:46:15.743Z,39.53
2018-07-07T10:48:08.630Z,39.84
2018-07-07T10:49:08.481Z,38.67
2018-07-07T10:51:01.253Z,39.41
2018-07-07T10:52:01.190Z,40.70
2018-07-07T10:53:53.983Z,39.34
2018-07-07T10:54:53.916Z,40.91
2018-07-07T10:56:46.770Z,39.86
2018-07-07T10:57:46.710Z,39.47
2018-07-07T10:59:39.513Z,39.57
2018-07-07T11:00:39.440Z,37.81
2018-07-07T11:02:32.408Z,38.20
2018-07-07T11:03:32.202Z,37.70
2018-07-07T11:05:24.992Z,37.99
2018-07-07T11:06:24.932Z,39.55
2018-07-07T11:08:17.721Z,36.94
2018-07-07T11:09:17.661Z,37.02
2018-07-07T11:11:10.512Z,37.52
2018-07-07T11:12:10.461Z,37.04
2018-07-07T11:14:03.255Z,37.81
2018-07-07T11:15:03.171Z,38.59
2018-07-07T11:16:56.206Z,38.42
2018-07-07T11:17:55.899Z,38.02
2018-07-07T11:19:48.726Z,38.89
2018-07-07T11:20:48.640Z,38.01
2018-07-07T11:22:41.440Z,38.81
2018-07-07T11:23:41.392Z,37.62
2018-07-07T11:25:34.206Z,37.25
2018-07-07T11:26:34.152Z,37.52
2018-07-07T11:28:26.924Z,37.60
2018-07-07T11:29:26.883Z,38.18
2018-07-07T11:31:19.706Z,37.81
2018-07-07T11:32:19.582Z,37.52
2018-07-07T11:34:12.368Z,37.91
2018-07-07T11:35:12.316Z,37.23
2018-07-07T11:37:05.106Z,37.19
2018-07-07T11:38:05.228Z,38.46
2018-07-07T11:39:57.908Z,39.43
2018-07-07T11:40:57.868Z,38.38
2018-07-07T11:42:50.674Z,38.46
2018-07-07T11:43:50.608Z,37.60
2018-07-07T11:45:43.416Z,38.44
2018-07-07T11:46:43.356Z,39.51
2018-07-07T11:48:36.146Z,39.49
2018-07-07T11:49:36.086Z,38.23
2018-07-07T11:51:28.872Z,40.75
2018-07-07T11:52:28.804Z,40.47
2018-07-07T11:54:21.596Z,39.88
2018-07-07T11:55:21.550Z,40.29
2018-07-07T11:57:14.371Z,38.71
2018-07-07T11:58:14.282Z,39.88
2018-07-07T12:00:07.067Z,39.39
2018-07-07T12:01:06.999Z,39.67
2018-07-07T12:02:59.857Z,39.37
2018-07-07T12:03:59.748Z,40.15
2018-07-07T12:05:52.542Z,39.45
2018-07-07T12:06:52.478Z,40.42
2018-07-07T12:08:45.293Z,39.24
2018-07-07T12:09:45.238Z,40.69
2018-07-07T12:11:38.074Z,41.67
2018-07-07T12:12:37.997Z,41.77
2018-07-07T12:14:30.832Z,40.48
2018-07-07T12:15:30.730Z,41.36
2018-07-07T12:17:23.520Z,41.06
2018-07-07T12:18:23.457Z,41.43
2018-07-07T12:20:16.231Z,42.02
2018-07-07T12:21:16.179Z,42.50
2018-07-07T12:23:08.962Z,41.61
2018-07-07T12:24:08.904Z,41.99
2018-07-07T12:26:01.686Z,42.09
2018-07-07T12:27:01.661Z,42.67
2018-07-07T12:28:54.440Z,42.77
2018-07-07T12:29:54.344Z,42.09
2018-07-07T12:31:47.121Z,41.63
2018-07-07T12:32:47.067Z,41.92
2018-07-07T12:34:39.896Z,41.63
2018-07-07T12:35:39.785Z,41.31
2018-07-07T12:37:32.581Z,42.02
2018-07-07T12:38:32.529Z,41.33
2018-07-07T12:40:25.332Z,40.39
2018-07-07T12:41:25.234Z,40.39
2018-07-07T12:43:18.028Z,39.80
2018-07-07T12:44:18.036Z,40.97
2018-07-07T12:46:10.864Z,41.05
2018-07-07T12:47:10.702Z,40.75
2018-07-07T12:49:03.475Z,40.85
2018-07-07T12:50:03.439Z,40.95
2018-07-07T12:51:56.318Z,39.59
2018-07-07T12:52:56.239Z,39.95
2018-07-07T12:54:48.952Z,41.12
2018-07-07T12:55:48.874Z,41.61
2018-07-07T12:57:41.665Z,41.22
2018-07-07T12:58:41.602Z,41.31
2018-07-07T13:00:34.419Z,40.54
2018-07-07T13:01:34.323Z,41.61
2018-07-07T13:03:27.107Z,42.29
2018-07-07T13:04:27.053Z,40.54
2018-07-07T13:06:19.861Z,40.34
2018-07-07T13:07:19.791Z,40.92
2018-07-07T13:09:12.566Z,42.48
2018-07-07T13:10:12.496Z,41.80
2018-07-07T13:12:05.292Z,40.73
2018-07-07T13:13:05.223Z,40.42
2018-07-07T13:14:58.018Z,41.68
2018-07-07T13:15:57.982Z,41.68
2018-07-07T13:17:50.736Z,40.33
2018-07-07T13:18:50.684Z,40.44
2018-07-07T13:20:43.499Z,41.12
2018-07-07T13:21:43.410Z,41.41
2018-07-07T13:23:36.203Z,41.02
2018-07-07T13:24:36.136Z,40.92
2018-07-07T13:26:29.032Z,41.61
2018-07-07T13:27:28.855Z,42.29
2018-07-07T13:29:21.638Z,41.02
2018-07-07T13:30:21.575Z,40.92
2018-07-07T13:32:14.377Z,41.12
2018-07-07T13:33:14.404Z,41.78
2018-07-07T13:35:07.142Z,41.41
2018-07-07T13:36:07.088Z,39.67
2018-07-07T13:37:59.915Z,40.05
2018-07-07T13:38:59.802Z,39.18
2018-07-07T13:40:52.599Z,41.61
2018-07-07T13:41:52.605Z,41.41
2018-07-07T13:43:45.300Z,40.95
2018-07-07T13:44:45.243Z,41.31
2018-07-07T13:46:38.055Z,42.21
2018-07-07T13:47:37.971Z,41.31
2018-07-07T13:49:30.803Z,41.41
2018-07-07T13:50:30.707Z,41.99
2018-07-07T13:52:23.503Z,41.31
2018-07-07T13:53:23.422Z,42.77
2018-07-07T13:55:16.298Z,42.09
2018-07-07T13:56:16.224Z,42.77
2018-07-07T13:58:08.993Z,42.86
2018-07-07T13:59:08.949Z,43.35
2018-07-07T14:01:01.703Z,41.99
2018-07-07T14:02:01.652Z,41.89
2018-07-07T14:03:54.444Z,41.99
2018-07-07T14:04:54.368Z,42.60
2018-07-07T14:06:47.194Z,42.40
2018-07-07T14:07:47.136Z,42.40
2018-07-07T14:09:39.926Z,42.79
2018-07-07T14:10:39.850Z,42.50
2018-07-07T14:12:32.642Z,42.43
2018-07-07T14:13:32.564Z,41.53
2018-07-07T14:15:25.439Z,42.43
2018-07-07T14:16:25.311Z,40.77
2018-07-07T14:18:18.137Z,40.77
2018-07-07T14:19:18.058Z,40.31
2018-07-07T14:21:10.849Z,41.55
2018-07-07T14:22:10.813Z,41.45
2018-07-07T14:24:03.615Z,41.94
2018-07-07T14:25:03.516Z,42.33
2018-07-07T14:26:56.407Z,43.20
2018-07-07T14:27:56.240Z,42.43
2018-07-07T14:29:49.055Z,42.60
2018-07-07T14:30:48.981Z,42.13
2018-07-07T14:32:41.797Z,42.13
2018-07-07T14:33:41.728Z,43.20
2018-07-07T14:35:34.510Z,42.11
2018-07-07T14:36:34.441Z,42.02
2018-07-07T14:38:27.259Z,43.18
2018-07-07T14:39:27.221Z,42.11
2018-07-07T14:41:19.966Z,41.92
2018-07-07T14:42:19.889Z,42.40
2018-07-07T14:44:12.698Z,42.96
2018-07-07T14:45:12.626Z,42.67
2018-07-07T14:47:05.461Z,43.84
2018-07-07T14:48:05.406Z,43.16
2018-07-07T14:49:58.251Z,42.19
2018-07-07T14:50:58.171Z,43.45
2018-07-07T14:52:50.957Z,43.26
2018-07-07T14:53:50.893Z,43.26
2018-07-07T14:55:43.725Z,42.77
2018-07-07T14:56:43.642Z,43.26
2018-07-07T14:58:36.479Z,42.67
2018-07-07T14:59:36.383Z,44.03
2018-07-07T15:01:29.225Z,44.03
2018-07-07T15:02:29.103Z,43.84
2018-07-07T15:04:21.885Z,43.64
2018-07-07T15:05:21.826Z,43.84
2018-07-07T15:07:14.620Z,44.23
2018-07-07T15:08:14.552Z,44.23
2018-07-07T15:10:07.352Z,44.71
2018-07-07T15:11:07.278Z,45.10
2018-07-07T15:13:00.090Z,45.00
2018-07-07T15:14:00.013Z,45.29
2018-07-07T15:15:52.846Z,44.40
2018-07-07T15:16:52.732Z,44.81
2018-07-07T15:18:45.510Z,44.81
2018-07-07T15:19:45.481Z,45.07
2018-07-07T15:21:38.259Z,44.68
2018-07-07T15:22:38.256Z,44.88
2018-07-07T15:24:31.013Z,45.07
2018-07-07T15:25:30.920Z,44.78
2018-07-07T15:27:23.705Z,45.27
2018-07-07T15:28:23.634Z,45.27
2018-07-07T15:30:16.447Z,44.20
2018-07-07T15:31:16.388Z,44.98
2018-07-07T15:33:09.172Z,44.68
2018-07-07T15:34:09.127Z,44.98
2018-07-07T15:36:01.890Z,44.88
2018-07-07T15:37:01.828Z,45.17
2018-07-07T15:38:54.607Z,45.65
2018-07-07T15:39:54.533Z,45.75
2018-07-07T15:41:47.299Z,45.47
2018-07-07T15:42:47.248Z,44.71
2018-07-07T15:44:40.093Z,45.48
2018-07-07T15:45:39.978Z,45.78
2018-07-07T15:47:32.772Z,45.65
2018-07-07T15:48:32.696Z,45.56
2018-07-07T15:50:25.468Z,46.04
2018-07-07T15:51:25.469Z,45.95
2018-07-07T15:53:18.217Z,46.24
2018-07-07T15:54:18.147Z,46.14
2018-07-07T15:56:10.948Z,45.56
2018-07-07T15:57:10.904Z,46.33
2018-07-07T15:59:03.682Z,45.37
2018-07-07T16:00:03.590Z,45.75
2018-07-07T16:01:56.555Z,45.27
2018-07-07T16:02:56.334Z,44.78
2018-07-07T16:04:49.121Z,44.98
2018-07-07T16:05:49.036Z,45.85
2018-07-07T16:07:41.886Z,46.33
2018-07-07T16:08:41.789Z,46.33
2018-07-07T16:10:34.560Z,45.65
2018-07-07T16:11:34.495Z,45.17
2018-07-07T16:13:27.310Z,47.69
2018-07-07T16:14:27.228Z,46.53
2018-07-07T16:16:20.069Z,46.82
2018-07-07T16:17:20.018Z,47.89
2018-07-07T16:19:12.817Z,47.98
2018-07-07T16:20:12.743Z,46.92
2018-07-07T16:22:05.554Z,47.79
2018-07-07T16:23:05.465Z,47.98
2018-07-07T16:24:58.378Z,47.79
2018-07-07T16:25:58.246Z,47.69
2018-07-07T16:27:51.062Z,47.40
2018-07-07T16:28:50.965Z,47.79
2018-07-07T16:30:43.753Z,47.50
2018-07-07T16:31:43.690Z,47.89
2018-07-07T16:33:36.525Z,49.15
2018-07-07T16:34:36.477Z,49.05
2018-07-07T16:36:29.275Z,48.35
2018-07-07T16:37:29.231Z,47.89
2018-07-07T16:39:22.054Z,48.54
2018-07-07T16:40:21.976Z,48.93
2018-07-07T16:42:14.765Z,47.38
2018-07-07T16:43:14.712Z,48.74
2018-07-07T16:45:07.551Z,48.35
2018-07-07T16:46:07.530Z,48.93
2018-07-07T16:48:00.245Z,48.83
2018-07-07T16:49:00.186Z,48.83
2018-07-07T16:50:53.024Z,49.32
2018-07-07T16:51:52.912Z,49.12
2018-07-07T16:53:45.768Z,48.74
2018-07-07T16:54:45.644Z,49.99
2018-07-07T16:56:38.527Z,49.02
2018-07-07T16:57:38.376Z,50.09
2018-07-07T16:59:31.178Z,49.51
2018-07-07T17:00:31.092Z,49.61
2018-07-07T17:02:23.991Z,49.12
2018-07-07T17:03:23.816Z,49.61
2018-07-07T17:05:16.628Z,48.90
2018-07-07T17:06:16.525Z,50.57
2018-07-07T17:08:09.325Z,49.58
2018-07-07T17:09:09.251Z,49.61
2018-07-07T17:11:02.107Z,50.19
2018-07-07T17:12:01.994Z,49.77
2018-07-07T17:13:54.767Z,50.38
2018-07-07T17:14:54.708Z,50.35
2018-07-07T17:16:47.504Z,51.13
2018-07-07T17:17:47.437Z,50.35
2018-07-07T17:19:40.202Z,51.52
2018-07-07T17:20:40.146Z,50.84
2018-07-07T17:22:32.924Z,51.04
2018-07-07T17:23:32.857Z,51.13
2018-07-07T17:25:25.648Z,51.23
2018-07-07T17:26:25.582Z,51.42
2018-07-07T17:28:18.390Z,51.62
2018-07-07T17:29:18.309Z,51.42
2018-07-07T17:31:11.079Z,51.72
2018-07-07T17:32:11.036Z,52.10
2018-07-07T17:34:03.809Z,51.04
2018-07-07T17:35:03.749Z,52.00
2018-07-07T17:36:56.640Z,52.39
2018-07-07T17:37:56.571Z,51.32
2018-07-07T17:39:49.301Z,51.90
2018-07-07T17:40:49.236Z,52.29
2018-07-07T17:42:42.024Z,52.29
2018-07-07T17:43:41.958Z,52.27
2018-07-07T17:45:34.813Z,52.17
2018-07-07T17:46:34.704Z,52.85
2018-07-07T17:48:27.531Z,52.46
2018-07-07T17:49:27.520Z,52.56
2018-07-07T17:51:20.246Z,52.27
2018-07-07T17:52:20.185Z,52.56
2018-07-07T17:54:13.001Z,53.23
2018-07-07T17:55:12.915Z,53.63
2018-07-07T17:57:05.702Z,53.41
2018-07-07T17:58:05.639Z,53.72
2018-07-07T17:59:58.505Z,54.11
2018-07-07T18:00:58.427Z,53.72
2018-07-07T18:02:51.301Z,54.21
2018-07-07T18:03:51.278Z,53.72
2018-07-07T18:05:44.020Z,54.11
2018-07-07T18:06:43.963Z,54.59
2018-07-07T18:08:36.798Z,54.98
2018-07-07T18:09:36.667Z,54.66
2018-07-07T18:11:29.559Z,54.66
2018-07-07T18:12:29.439Z,54.66
2018-07-07T18:14:22.223Z,53.59
2018-07-07T18:15:22.180Z,54.57
2018-07-07T18:17:14.946Z,55.34
2018-07-07T18:18:14.884Z,55.73
2018-07-07T18:20:07.676Z,55.05
2018-07-07T18:21:07.603Z,54.95
2018-07-07T18:23:00.376Z,54.75
2018-07-07T18:24:00.315Z,54.98
2018-07-07T18:25:53.154Z,53.65
2018-07-07T18:26:53.078Z,53.75
2018-07-07T18:28:45.853Z,54.69
2018-07-07T18:29:45.799Z,55.85
2018-07-07T18:31:38.595Z,55.43